createdAt,value
2019-03-30T00:02:29.819Z,34.53
2019-03-30T00:05:04.472Z,34.51
2019-03-30T00:07:39.072Z,34.50
2019-03-30T00:10:13.915Z,34.47
2019-03-30T00:12:48.486Z,34.45
2019-03-30T00:15:23.412Z,34.46
2019-03-30T00:17:57.949Z,34.46
2019-03-30T00:20:32.519Z,34.43
2019-03-30T00:23:07.158Z,34.43
2019-03-30T00:25:41.833Z,34.42
2019-03-30T00:28:16.467Z,34.38
2019-03-30T00:30:51.036Z,34.38
2019-03-30T00:33:25.635Z,34.50
2019-03-30T00:36:00.177Z,34.46
2019-03-30T00:38:34.761Z,34.47
2019-03-30T00:41:09.297Z,34.49
2019-03-30T00:43:43.974Z,34.49
2019-03-30T00:46:18.490Z,34.49
2019-03-30T00:48:53.310Z,34.49
2019-03-30T00:51:27.940Z,34.49
2019-03-30T00:54:02.863Z,34.49
2019-03-30T00:56:37.516Z,34.48
2019-03-30T00:59:12.073Z,34.47
2019-03-30T01:01:46.680Z,34.45
2019-03-30T01:04:21.239Z,34.45
2019-03-30T01:06:55.886Z,34.41
2019-03-30T01:09:30.425Z,34.38
2019-03-30T01:12:04.976Z,34.37
2019-03-30T01:14:39.586Z,34.36
2019-03-30T01:17:14.014Z,34.34
2019-03-30T01:20:01.954Z,34.32
2019-03-30T01:22:25.093Z,34.30
2019-03-30T01:24:59.616Z,34.30
2019-03-30T01:27:34.276Z,34.28
2019-03-30T01:30:22.178Z,34.26
2019-03-30T01:32:45.181Z,34.24
2019-03-30T01:35:19.917Z,34.21
2019-03-30T01:37:54.688Z,34.22
2019-03-30T01:40:29.222Z,34.21
2019-03-30T01:43:03.746Z,34.19
2019-03-30T01:45:38.300Z,34.17
2019-03-30T01:48:13.096Z,34.15
2019-03-30T01:50:47.755Z,34.13
2019-03-30T01:53:22.277Z,34.11
2019-03-30T01:55:56.900Z,34.11
2019-03-30T01:58:31.680Z,34.07
2019-03-30T02:01:06.328Z,34.07
2019-03-30T02:03:40.865Z,34.06
2019-03-30T02:06:15.562Z,34.04
2019-03-30T02:08:50.113Z,34.02
2019-03-30T02:11:24.952Z,34.03
2019-03-30T02:13:59.404Z,34.02
2019-03-30T02:16:34.098Z,34.00
2019-03-30T02:19:08.632Z,33.97
2019-03-30T02:21:43.659Z,33.95
2019-03-30T02:24:18.362Z,33.97
2019-03-30T02:26:52.899Z,33.95
2019-03-30T02:29:27.635Z,33.94
2019-03-30T02:32:02.631Z,33.92
2019-03-30T02:34:37.488Z,33.89
2019-03-30T02:37:11.918Z,33.88
2019-03-30T02:39:46.467Z,33.87
2019-03-30T02:42:21.732Z,33.86
2019-03-30T02:44:56.461Z,33.87
2019-03-30T02:47:31.015Z,33.83
2019-03-30T02:50:05.771Z,33.83
2019-03-30T02:52:40.347Z,33.81
2019-03-30T02:55:15.027Z,33.80
2019-03-30T02:57:49.572Z,33.78
2019-03-30T03:00:24.203Z,33.77
2019-03-30T03:02:58.843Z,33.73
2019-03-30T03:05:33.489Z,33.71
2019-03-30T03:08:08.033Z,33.71
2019-03-30T03:10:44.934Z,33.70
2019-03-30T03:13:19.510Z,33.67
2019-03-30T03:15:54.130Z,33.67
2019-03-30T03:18:28.689Z,33.64
2019-03-30T03:21:07.747Z,33.66
2019-03-30T03:23:39.413Z,33.63
2019-03-30T03:26:14.071Z,33.64
2019-03-30T03:28:48.660Z,33.59
2019-03-30T03:31:23.494Z,33.62
2019-03-30T03:33:58.089Z,33.59
2019-03-30T03:36:32.894Z,33.59
2019-03-30T03:39:08.636Z,33.55
2019-03-30T03:41:43.400Z,33.54
2019-03-30T03:44:17.937Z,33.53
2019-03-30T03:46:53.222Z,33.52
2019-03-30T03:49:27.763Z,33.51
2019-03-30T03:52:02.871Z,33.47
2019-03-30T03:54:37.546Z,33.48
2019-03-30T03:57:12.198Z,33.46
2019-03-30T03:59:46.642Z,33.44
2019-03-30T04:02:21.246Z,33.46
2019-03-30T04:04:56.124Z,33.43
2019-03-30T04:07:31.370Z,33.39
2019-03-30T04:10:08.147Z,33.39
2019-03-30T04:12:44.371Z,33.40
2019-03-30T04:15:27.963Z,33.42
2019-03-30T04:18:02.718Z,33.40
2019-03-30T04:20:37.218Z,33.37
2019-03-30T04:23:11.732Z,33.35
2019-03-30T04:25:46.422Z,33.46
2019-03-30T04:28:21.257Z,33.42
2019-03-30T04:30:55.830Z,33.37
2019-03-30T04:33:30.430Z,33.36
2019-03-30T04:36:06.440Z,33.35
2019-03-30T04:38:41.087Z,33.34
2019-03-30T04:41:15.699Z,33.33
2019-03-30T04:43:50.367Z,33.33
2019-03-30T04:46:24.941Z,33.30
2019-03-30T04:48:59.375Z,33.30
2019-03-30T04:51:34.171Z,33.29
2019-03-30T04:54:08.578Z,33.29
2019-03-30T04:56:43.599Z,33.28
2019-03-30T04:59:18.466Z,33.25
2019-03-30T05:01:53.152Z,33.23
2019-03-30T05:04:27.685Z,33.22
2019-03-30T05:07:02.211Z,33.22
2019-03-30T05:09:36.739Z,33.18
2019-03-30T05:12:11.260Z,33.14
2019-03-30T05:14:45.923Z,33.15
2019-03-30T05:17:20.364Z,33.12
2019-03-30T05:19:54.936Z,33.11
2019-03-30T05:22:29.561Z,33.11
2019-03-30T05:25:04.348Z,33.09
2019-03-30T05:27:38.877Z,33.09
2019-03-30T05:30:13.923Z,33.08
2019-03-30T05:32:48.469Z,33.05
2019-03-30T05:35:23.032Z,33.02
2019-03-30T05:37:57.529Z,33.00
2019-03-30T05:40:32.703Z,32.96
2019-03-30T05:43:07.276Z,32.95
2019-03-30T05:45:41.841Z,32.95
2019-03-30T05:48:16.378Z,32.94
2019-03-30T05:50:52.734Z,32.89
2019-03-30T05:53:27.306Z,32.87
2019-03-30T05:56:01.873Z,32.88
2019-03-30T05:58:36.384Z,32.86
2019-03-30T06:01:10.929Z,32.87
2019-03-30T06:03:45.522Z,32.84
2019-03-30T06:06:20.070Z,32.85
2019-03-30T06:08:54.590Z,32.81
2019-03-30T06:11:29.052Z,32.81
2019-03-30T06:14:05.238Z,32.85
2019-03-30T06:16:39.784Z,32.82
2019-03-30T06:19:14.350Z,32.83
2019-03-30T06:21:48.906Z,32.78
2019-03-30T06:24:23.728Z,32.77
2019-03-30T06:26:58.562Z,32.77
2019-03-30T06:29:33.190Z,32.78
2019-03-30T06:32:07.718Z,32.76
2019-03-30T06:34:42.273Z,32.78
2019-03-30T06:37:16.842Z,32.76
2019-03-30T06:39:51.464Z,32.76
2019-03-30T06:42:26.022Z,32.75
2019-03-30T06:45:00.552Z,32.77
2019-03-30T06:47:35.534Z,32.74
2019-03-30T06:50:09.994Z,32.77
2019-03-30T06:52:56.806Z,32.76
2019-03-30T06:55:20.732Z,32.76
2019-03-30T06:57:55.485Z,32.85
2019-03-30T07:00:36.900Z,32.73
2019-03-30T07:03:11.406Z,32.73
2019-03-30T07:05:46.120Z,32.73
2019-03-30T07:08:20.852Z,32.69
2019-03-30T07:10:55.603Z,32.69
2019-03-30T07:13:30.118Z,32.73
2019-03-30T07:16:04.780Z,32.72
2019-03-30T07:18:39.346Z,32.75
2019-03-30T07:21:13.894Z,32.72
2019-03-30T07:23:48.529Z,32.74
2019-03-30T07:26:23.469Z,32.55
2019-03-30T07:28:58.102Z,32.71
2019-03-30T07:31:32.915Z,32.74
2019-03-30T07:34:07.577Z,32.73
2019-03-30T07:36:42.186Z,32.69
2019-03-30T07:39:17.072Z,32.68
2019-03-30T07:41:51.619Z,32.69
2019-03-30T07:44:26.351Z,32.73
2019-03-30T07:47:00.796Z,32.80
2019-03-30T07:49:35.426Z,32.75
2019-03-30T07:52:10.430Z,32.79
2019-03-30T07:54:44.960Z,32.83
2019-03-30T07:57:19.620Z,32.86
2019-03-30T07:59:54.242Z,32.90
2019-03-30T08:02:28.925Z,32.94
2019-03-30T08:05:03.718Z,32.95
2019-03-30T08:07:38.274Z,32.98
2019-03-30T08:10:12.863Z,33.02
2019-03-30T08:12:47.347Z,33.18
2019-03-30T08:15:22.106Z,33.42
2019-03-30T08:17:56.579Z,33.37
2019-03-30T08:20:31.142Z,33.54
2019-03-30T08:23:05.772Z,33.55
2019-03-30T08:25:40.478Z,33.17
2019-03-30T08:28:15.131Z,33.26
2019-03-30T08:30:50.121Z,33.25
2019-03-30T08:33:24.807Z,33.13
2019-03-30T08:35:59.336Z,33.27
2019-03-30T08:38:33.934Z,33.36
2019-03-30T08:41:08.496Z,33.39
2019-03-30T08:43:43.434Z,33.48
2019-03-30T08:46:17.941Z,33.56
2019-03-30T08:48:52.531Z,33.65
2019-03-30T08:51:27.096Z,33.59
2019-03-30T08:54:01.964Z,33.53
2019-03-30T08:56:36.529Z,33.59
2019-03-30T08:59:11.211Z,33.58
2019-03-30T09:01:45.808Z,33.56
2019-03-30T09:04:20.407Z,33.54
2019-03-30T09:06:55.271Z,33.57
2019-03-30T09:09:29.833Z,33.55
2019-03-30T09:12:04.533Z,33.59
2019-03-30T09:14:39.095Z,33.52
2019-03-30T09:17:13.741Z,33.52
2019-03-30T09:19:48.449Z,33.46
2019-03-30T09:22:23.396Z,33.62
2019-03-30T09:24:59.160Z,33.63
2019-03-30T09:27:33.711Z,33.46
2019-03-30T09:30:09.495Z,33.53
2019-03-30T09:32:45.238Z,33.98
2019-03-30T09:35:20.065Z,33.93
2019-03-30T09:37:54.618Z,34.24
2019-03-30T09:40:29.385Z,34.10
2019-03-30T09:43:04.036Z,34.63
2019-03-30T09:45:38.479Z,34.47
2019-03-30T09:48:13.504Z,34.14
2019-03-30T09:50:48.118Z,34.07
2019-03-30T09:53:23.074Z,34.04
2019-03-30T09:55:57.622Z,34.02
2019-03-30T09:58:32.486Z,33.99
2019-03-30T10:01:07.102Z,33.94
2019-03-30T10:03:41.844Z,34.05
2019-03-30T10:06:16.425Z,34.07
2019-03-30T10:08:51.274Z,34.01
2019-03-30T10:11:27.202Z,34.01
2019-03-30T10:14:01.759Z,33.99
2019-03-30T10:16:36.418Z,33.91
2019-03-30T10:19:10.974Z,34.04
2019-03-30T10:21:45.604Z,33.94
2019-03-30T10:24:20.293Z,34.17
2019-03-30T10:26:54.862Z,34.02
2019-03-30T10:29:29.518Z,33.96
2019-03-30T10:32:04.090Z,33.82
2019-03-30T10:34:39.887Z,33.85
2019-03-30T10:37:15.529Z,33.79
2019-03-30T10:39:50.059Z,33.69
2019-03-30T10:42:24.531Z,33.24
2019-03-30T10:44:59.077Z,33.60
2019-03-30T10:47:33.888Z,33.69
2019-03-30T10:50:08.803Z,33.78
2019-03-30T10:52:43.416Z,33.63
2019-03-30T10:55:18.012Z,33.33
2019-03-30T10:57:52.819Z,33.28
2019-03-30T11:00:45.598Z,33.42
2019-03-30T11:03:20.141Z,33.17
2019-03-30T11:05:54.901Z,32.35
2019-03-30T11:08:29.358Z,32.11
2019-03-30T11:11:05.717Z,31.29
2019-03-30T11:13:40.419Z,31.64
2019-03-30T11:16:14.963Z,31.13
2019-03-30T11:18:49.593Z,31.36
2019-03-30T11:21:24.214Z,30.58
2019-03-30T11:23:58.912Z,31.07
2019-03-30T11:26:33.781Z,30.75
2019-03-30T11:29:08.419Z,30.84
2019-03-30T11:31:43.507Z,30.95
2019-03-30T11:34:18.088Z,31.29
2019-03-30T11:36:52.584Z,31.54
2019-03-30T11:39:28.242Z,31.47
2019-03-30T11:42:03.083Z,31.24
2019-03-30T11:44:37.862Z,30.80
2019-03-30T11:47:13.106Z,31.42
2019-03-30T11:49:47.650Z,30.33
2019-03-30T11:52:22.223Z,29.67
2019-03-30T11:54:56.878Z,29.93
2019-03-30T11:57:31.419Z,29.16
2019-03-30T12:00:06.169Z,30.01
2019-03-30T12:02:40.883Z,29.28
2019-03-30T12:05:15.439Z,29.52
2019-03-30T12:07:49.989Z,30.35
2019-03-30T12:10:25.085Z,30.61
2019-03-30T12:12:59.750Z,30.53
2019-03-30T12:15:34.345Z,30.92
2019-03-30T12:18:08.806Z,30.52
2019-03-30T12:20:43.759Z,30.05
2019-03-30T12:23:19.539Z,29.82
2019-03-30T12:25:54.254Z,30.34
2019-03-30T12:28:28.813Z,30.06
2019-03-30T12:31:04.469Z,30.33
2019-03-30T12:33:39.107Z,29.60
2019-03-30T12:36:13.768Z,30.01
2019-03-30T12:38:48.358Z,30.37
2019-03-30T12:41:22.921Z,30.54
2019-03-30T12:43:57.526Z,30.79
2019-03-30T12:46:32.570Z,30.71
2019-03-30T12:49:07.016Z,31.06
2019-03-30T12:51:41.638Z,28.38
2019-03-30T12:54:16.242Z,30.39
2019-03-30T12:56:50.785Z,30.18
2019-03-30T12:59:25.339Z,30.71
2019-03-30T13:01:59.890Z,30.96
2019-03-30T13:04:34.520Z,30.40
2019-03-30T13:07:09.172Z,30.91
2019-03-30T13:09:43.675Z,30.97
2019-03-30T13:12:18.249Z,30.58
2019-03-30T13:14:52.975Z,30.65
2019-03-30T13:17:27.552Z,30.94
2019-03-30T13:20:03.989Z,31.05
2019-03-30T13:22:38.673Z,31.15
2019-03-30T13:25:14.201Z,31.25
2019-03-30T13:27:48.787Z,31.43
2019-03-30T13:30:23.635Z,31.52
2019-03-30T13:32:59.961Z,31.63
2019-03-30T13:35:35.689Z,31.65
2019-03-30T13:38:10.311Z,31.67
2019-03-30T13:40:45.039Z,31.67
2019-03-30T13:43:19.587Z,31.74
2019-03-30T13:45:54.129Z,31.75
2019-03-30T13:48:28.910Z,31.94
2019-03-30T13:51:04.459Z,31.94
2019-03-30T13:53:39.001Z,31.89
2019-03-30T13:56:17.374Z,31.86
2019-03-30T13:58:49.890Z,32.04
2019-03-30T14:01:24.315Z,31.88
2019-03-30T14:03:58.845Z,31.90
2019-03-30T14:06:33.487Z,31.89
2019-03-30T14:09:09.198Z,31.75
2019-03-30T14:11:43.770Z,32.12
2019-03-30T14:14:18.232Z,31.72
2019-03-30T14:16:54.746Z,31.78
2019-03-30T14:19:29.443Z,32.05
2019-03-30T14:22:03.978Z,32.05
2019-03-30T14:24:38.625Z,32.01
2019-03-30T14:27:13.527Z,32.07
2019-03-30T14:29:48.476Z,32.24
2019-03-30T14:32:23.190Z,32.29
2019-03-30T14:34:57.701Z,32.07
2019-03-30T14:37:32.272Z,32.27
2019-03-30T14:40:08.268Z,31.80
2019-03-30T14:42:43.127Z,31.73
2019-03-30T14:45:17.690Z,31.88
2019-03-30T14:47:52.233Z,31.70
2019-03-30T14:50:26.769Z,31.83
2019-03-30T14:53:01.279Z,31.95
2019-03-30T14:55:39.302Z,31.81
2019-03-30T14:58:12.774Z,31.39
2019-03-30T15:00:47.468Z,31.57
2019-03-30T15:03:21.893Z,31.57
2019-03-30T15:05:56.587Z,31.68
2019-03-30T15:08:31.023Z,31.65
2019-03-30T15:11:05.624Z,31.82
2019-03-30T15:13:40.139Z,31.75
2019-03-30T15:16:14.674Z,32.17
2019-03-30T15:18:50.900Z,33.44
2019-03-30T15:21:25.527Z,32.38
2019-03-30T15:24:00.086Z,32.94
2019-03-30T15:26:34.661Z,32.85
2019-03-30T15:29:09.251Z,32.61
2019-03-30T15:31:43.700Z,32.90
2019-03-30T15:34:18.321Z,32.86
2019-03-30T15:36:53.476Z,32.65
2019-03-30T15:39:28.016Z,32.60
2019-03-30T15:42:02.992Z,33.18
2019-03-30T15:44:37.456Z,32.87
2019-03-30T15:47:12.685Z,32.74
2019-03-30T15:49:47.221Z,32.73
2019-03-30T15:52:21.876Z,32.69
2019-03-30T15:54:56.763Z,32.66
2019-03-30T15:57:32.701Z,32.83
2019-03-30T16:00:08.061Z,32.78
2019-03-30T16:02:43.060Z,32.88
2019-03-30T16:05:18.228Z,33.00
2019-03-30T16:07:52.758Z,32.89
2019-03-30T16:10:27.319Z,32.95
2019-03-30T16:13:01.959Z,33.22
2019-03-30T16:15:36.481Z,33.05
2019-03-30T16:18:10.905Z,33.17
2019-03-30T16:20:45.432Z,33.23
2019-03-30T16:23:19.945Z,33.50
2019-03-30T16:25:54.389Z,34.55
2019-03-30T16:28:28.997Z,33.79
2019-03-30T16:31:03.591Z,34.96
2019-03-30T16:33:38.240Z,33.79
2019-03-30T16:36:12.797Z,33.69
2019-03-30T16:38:48.954Z,33.81
2019-03-30T16:41:23.654Z,34.35
2019-03-30T16:43:58.309Z,34.88
2019-03-30T16:46:33.192Z,34.66
2019-03-30T16:49:07.930Z,35.15
2019-03-30T16:51:42.361Z,34.87
2019-03-30T16:54:16.936Z,35.19
2019-03-30T16:56:51.581Z,35.46
2019-03-30T16:59:26.318Z,35.55
2019-03-30T17:02:00.850Z,35.66
2019-03-30T17:04:35.646Z,35.69
2019-03-30T17:07:10.069Z,35.22
2019-03-30T17:09:44.716Z,35.29
2019-03-30T17:12:19.349Z,35.38
2019-03-30T17:14:53.890Z,35.37
2019-03-30T17:17:28.316Z,35.38
2019-03-30T17:20:03.139Z,35.53
2019-03-30T17:22:37.637Z,35.47
2019-03-30T17:25:12.224Z,35.54
2019-03-30T17:27:57.943Z,35.12
2019-03-30T17:30:23.282Z,35.85
2019-03-30T17:32:57.727Z,35.40
2019-03-30T17:35:32.187Z,35.58
2019-03-30T17:38:06.727Z,35.49
2019-03-30T17:40:41.468Z,35.37
2019-03-30T17:43:16.021Z,35.52
2019-03-30T17:45:50.496Z,35.55
2019-03-30T17:48:25.086Z,35.49
2019-03-30T17:50:59.806Z,35.61
2019-03-30T17:53:34.501Z,35.52
2019-03-30T17:56:08.985Z,35.11
2019-03-30T17:58:43.863Z,34.90
2019-03-30T18:01:18.601Z,34.51
2019-03-30T18:03:53.099Z,35.04
2019-03-30T18:06:27.617Z,34.35
2019-03-30T18:09:02.140Z,33.25
2019-03-30T18:11:36.757Z,32.96
2019-03-30T18:14:11.289Z,33.67
2019-03-30T18:16:45.931Z,33.89
2019-03-30T18:19:20.401Z,34.20
2019-03-30T18:21:55.137Z,34.20
2019-03-30T18:24:29.690Z,34.29
2019-03-30T18:27:04.517Z,34.34
2019-03-30T18:29:39.230Z,34.28
2019-03-30T18:32:14.005Z,34.34
2019-03-30T18:34:48.429Z,34.23
2019-03-30T18:37:23.284Z,34.13
2019-03-30T18:39:57.826Z,34.10
2019-03-30T18:42:32.461Z,34.00
2019-03-30T18:45:08.555Z,34.04
2019-03-30T18:47:43.259Z,34.29
2019-03-30T18:50:17.949Z,34.26
2019-03-30T18:52:52.930Z,34.44
2019-03-30T18:55:27.588Z,34.36
2019-03-30T18:58:02.252Z,34.24
2019-03-30T19:00:36.784Z,36.10
2019-03-30T19:03:11.419Z,35.76
2019-03-30T19:05:48.166Z,35.42
2019-03-30T19:08:23.005Z,35.34
2019-03-30T19:10:57.573Z,35.09
2019-03-30T19:13:32.143Z,34.99
2019-03-30T19:16:06.673Z,35.76
2019-03-30T19:18:41.408Z,36.33
2019-03-30T19:21:16.005Z,36.34
2019-03-30T19:23:50.636Z,36.91
2019-03-30T19:26:25.312Z,37.16
2019-03-30T19:28:59.768Z,37.45
2019-03-30T19:31:34.403Z,37.46
2019-03-30T19:34:10.407Z,37.66
2019-03-30T19:36:45.189Z,37.74
2019-03-30T19:39:20.328Z,37.85
2019-03-30T19:41:54.898Z,37.55
2019-03-30T19:44:30.491Z,36.82
2019-03-30T19:47:05.231Z,36.78
2019-03-30T19:49:39.770Z,36.90
2019-03-30T19:52:14.409Z,37.13
2019-03-30T19:54:49.038Z,37.37
2019-03-30T19:57:27.382Z,37.44
2019-03-30T20:00:00.395Z,37.46
2019-03-30T20:02:35.314Z,37.57
2019-03-30T20:05:09.973Z,37.72
2019-03-30T20:07:45.326Z,37.75
2019-03-30T20:10:20.019Z,37.80
2019-03-30T20:12:54.659Z,37.90
2019-03-30T20:15:29.226Z,37.88
2019-03-30T20:18:04.071Z,37.89
2019-03-30T20:20:38.557Z,37.93
2019-03-30T20:23:13.247Z,37.99
2019-03-30T20:25:48.255Z,38.03
2019-03-30T20:28:23.041Z,38.04
2019-03-30T20:30:57.592Z,37.94
2019-03-30T20:33:33.000Z,38.02
2019-03-30T20:36:07.640Z,38.19
2019-03-30T20:38:42.763Z,38.22
2019-03-30T20:41:17.325Z,38.33
2019-03-30T20:43:51.924Z,38.39
2019-03-30T20:46:26.640Z,38.36
2019-03-30T20:49:01.193Z,38.33
2019-03-30T20:51:36.042Z,38.35
2019-03-30T20:54:10.561Z,38.21
2019-03-30T20:56:45.243Z,38.22
2019-03-30T20:59:19.786Z,38.24
2019-03-30T21:01:54.340Z,38.28
2019-03-30T21:04:28.803Z,38.21
2019-03-30T21:07:03.752Z,38.23
2019-03-30T21:09:38.346Z,38.20
2019-03-30T21:12:13.140Z,38.23
2019-03-30T21:14:47.694Z,38.16
2019-03-30T21:17:22.118Z,38.11
2019-03-30T21:19:56.573Z,38.12
2019-03-30T21:22:31.341Z,38.06
2019-03-30T21:25:07.257Z,38.05
2019-03-30T21:27:41.807Z,38.06
2019-03-30T21:30:16.330Z,38.06
2019-03-30T21:32:51.086Z,38.07
2019-03-30T21:35:25.623Z,38.02
2019-03-30T21:38:00.261Z,38.03
2019-03-30T21:40:34.884Z,37.99
2019-03-30T21:43:09.432Z,37.96
2019-03-30T21:45:44.149Z,37.98
2019-03-30T21:48:18.686Z,37.93
2019-03-30T21:50:53.487Z,37.93
2019-03-30T21:53:27.985Z,37.99
2019-03-30T21:56:02.487Z,37.90
2019-03-30T21:58:37.058Z,37.89
2019-03-30T22:01:12.008Z,37.88
2019-03-30T22:03:46.468Z,37.90
2019-03-30T22:06:21.279Z,37.86
2019-03-30T22:08:55.788Z,37.86
2019-03-30T22:11:30.366Z,37.83
2019-03-30T22:14:05.231Z,37.83
2019-03-30T22:16:39.962Z,37.78
2019-03-30T22:19:14.619Z,37.50
2019-03-30T22:21:49.232Z,37.12
2019-03-30T22:24:23.864Z,37.41
2019-03-30T22:26:58.273Z,37.33
2019-03-30T22:29:32.851Z,37.62
2019-03-30T22:32:07.393Z,37.70
2019-03-30T22:34:42.711Z,37.65
2019-03-30T22:37:17.241Z,37.89
2019-03-30T22:39:51.654Z,37.77
2019-03-30T22:42:26.098Z,37.87
2019-03-30T22:45:00.631Z,37.94
2019-03-30T22:47:35.421Z,38.00
2019-03-30T22:50:10.123Z,38.05
2019-03-30T22:52:44.662Z,38.06
2019-03-30T22:55:19.315Z,38.11
2019-03-30T22:57:53.774Z,38.13
2019-03-30T23:00:45.734Z,38.12
2019-03-30T23:03:20.272Z,38.11
2019-03-30T23:05:54.973Z,38.14
2019-03-30T23:08:29.516Z,38.12
2019-03-30T23:11:04.187Z,38.12
2019-03-30T23:13:38.781Z,38.11
2019-03-30T23:16:14.863Z,38.10
2019-03-30T23:18:49.396Z,38.07
2019-03-30T23:21:24.117Z,38.05
2019-03-30T23:23:58.747Z,38.04
2019-03-30T23:26:33.474Z,37.98
2019-03-30T23:29:08.082Z,37.99
2019-03-30T23:31:43.781Z,37.91
2019-03-30T23:34:18.449Z,37.93
2019-03-30T23:36:53.658Z,37.90
2019-03-30T23:39:28.274Z,37.77
2019-03-30T23:42:05.076Z,37.88
2019-03-30T23:44:39.696Z,37.86
2019-03-30T23:47:14.410Z,37.74
2019-03-30T23:49:48.995Z,37.85
2019-03-30T23:52:23.626Z,37.82
2019-03-30T23:54:58.111Z,37.65
2019-03-30T23:57:32.892Z,37.78
